Terminal Aerodrome Forecast
Issued by NWS Atlanta, GA

Current Version | Previous Version | Text Only | Print | Product List | Glossary On
Versions: 1 2 3 4 5 6 7 8 9 10 11 12 13 14 15 16 17 18 19
000
FTUS42 KFFC 231128
TAFMCN
TAF
KMCN 231128Z 2312/2412 08007KT 3SM RA BR OVC006
     FM231400 10010G17KT 4SM -SHRA BR OVC007
     FM232000 16010G19KT 6SM BR VCSH OVC009
     FM240200 19009KT 4SM BR OVC007=

USA.gov is the U.S. government's official web portal to all federal, state and local government web resources and services.